sensor_id;sensor_type;location;lat;lon;timestamp;P1;durP1;ratioP1;P2;durP2;ratioP2
21661;SDS011;10992;48.170;8.596;2024-02-28T00:02:02;34.10;;;22.85;;
21661;SDS011;10992;48.170;8.596;2024-02-28T00:04:29;32.85;;;20.55;;
21661;SDS011;10992;48.170;8.596;2024-02-28T00:06:56;34.67;;;21.67;;
21661;SDS011;10992;48.170;8.596;2024-02-28T00:09:23;37.28;;;23.08;;
21661;SDS011;10992;48.170;8.596;2024-02-28T00:11:50;34.13;;;21.65;;
21661;SDS011;10992;48.170;8.596;2024-02-28T00:14:17;30.02;;;20.02;;
21661;SDS011;10992;48.170;8.596;2024-02-28T00:16:45;32.13;;;21.70;;
21661;SDS011;10992;48.170;8.596;2024-02-28T00:19:12;33.60;;;21.10;;
21661;SDS011;10992;48.170;8.596;2024-02-28T00:21:40;33.70;;;21.23;;
21661;SDS011;10992;48.170;8.596;2024-02-28T00:24:07;31.73;;;21.48;;
21661;SDS011;10992;48.170;8.596;2024-02-28T00:26:36;34.58;;;21.42;;
21661;SDS011;10992;48.170;8.596;2024-02-28T00:29:06;35.28;;;23.17;;
21661;SDS011;10992;48.170;8.596;2024-02-28T00:31:33;34.13;;;21.85;;
21661;SDS011;10992;48.170;8.596;2024-02-28T00:34:00;32.60;;;20.65;;
21661;SDS011;10992;48.170;8.596;2024-02-28T00:36:27;33.38;;;21.48;;
21661;SDS011;10992;48.170;8.596;2024-02-28T00:39:05;35.17;;;21.52;;
21661;SDS011;10992;48.170;8.596;2024-02-28T00:41:31;32.80;;;21.73;;
21661;SDS011;10992;48.170;8.596;2024-02-28T00:43:58;34.13;;;21.40;;
21661;SDS011;10992;48.170;8.596;2024-02-28T00:46:25;34.13;;;22.05;;
21661;SDS011;10992;48.170;8.596;2024-02-28T00:48:52;37.83;;;23.30;;
21661;SDS011;10992;48.170;8.596;2024-02-28T00:51:19;35.78;;;21.95;;
21661;SDS011;10992;48.170;8.596;2024-02-28T00:53:46;40.33;;;23.73;;
21661;SDS011;10992;48.170;8.596;2024-02-28T00:56:13;36.35;;;22.55;;
21661;SDS011;10992;48.170;8.596;2024-02-28T00:58:40;33.45;;;22.20;;
21661;SDS011;10992;48.170;8.596;2024-02-28T01:01:07;36.67;;;23.55;;
21661;SDS011;10992;48.170;8.596;2024-02-28T01:03:34;39.58;;;24.48;;
21661;SDS011;10992;48.170;8.596;2024-02-28T01:06:00;36.72;;;23.67;;
21661;SDS011;10992;48.170;8.596;2024-02-28T01:08:29;37.13;;;23.88;;
21661;SDS011;10992;48.170;8.596;2024-02-28T01:10:56;36.90;;;23.30;;
21661;SDS011;10992;48.170;8.596;2024-02-28T01:13:25;39.75;;;23.38;;
21661;SDS011;10992;48.170;8.596;2024-02-28T01:15:51;38.28;;;23.92;;
21661;SDS011;10992;48.170;8.596;2024-02-28T01:18:18;37.90;;;23.92;;
21661;SDS011;10992;48.170;8.596;2024-02-28T01:20:45;38.92;;;24.02;;
21661;SDS011;10992;48.170;8.596;2024-02-28T01:23:12;38.45;;;24.02;;
21661;SDS011;10992;48.170;8.596;2024-02-28T01:25:39;39.15;;;24.95;;
21661;SDS011;10992;48.170;8.596;2024-02-28T01:28:06;41.75;;;24.52;;
21661;SDS011;10992;48.170;8.596;2024-02-28T01:30:33;39.42;;;24.70;;
21661;SDS011;10992;48.170;8.596;2024-02-28T01:32:59;38.63;;;24.27;;
21661;SDS011;10992;48.170;8.596;2024-02-28T01:35:26;35.78;;;23.25;;
21661;SDS011;10992;48.170;8.596;2024-02-28T01:37:53;40.00;;;24.08;;
21661;SDS011;10992;48.170;8.596;2024-02-28T01:40:20;39.38;;;24.70;;
21661;SDS011;10992;48.170;8.596;2024-02-28T01:42:47;41.17;;;24.98;;
21661;SDS011;10992;48.170;8.596;2024-02-28T01:45:14;37.30;;;23.45;;
21661;SDS011;10992;48.170;8.596;2024-02-28T01:47:41;41.35;;;24.85;;
21661;SDS011;10992;48.170;8.596;2024-02-28T01:50:11;40.95;;;24.63;;
21661;SDS011;10992;48.170;8.596;2024-02-28T01:52:39;40.60;;;22.90;;
21661;SDS011;10992;48.170;8.596;2024-02-28T01:55:06;37.55;;;23.20;;
21661;SDS011;10992;48.170;8.596;2024-02-28T01:57:34;43.85;;;25.40;;
21661;SDS011;10992;48.170;8.596;2024-02-28T02:00:04;40.28;;;24.15;;
21661;SDS011;10992;48.170;8.596;2024-02-28T02:02:32;39.78;;;25.35;;
21661;SDS011;10992;48.170;8.596;2024-02-28T02:04:59;40.65;;;24.67;;
21661;SDS011;10992;48.170;8.596;2024-02-28T02:07:26;38.47;;;24.02;;
21661;SDS011;10992;48.170;8.596;2024-02-28T02:09:53;37.13;;;23.95;;
21661;SDS011;10992;48.170;8.596;2024-02-28T02:12:21;40.58;;;24.55;;
21661;SDS011;10992;48.170;8.596;2024-02-28T02:14:48;41.50;;;24.52;;
21661;SDS011;10992;48.170;8.596;2024-02-28T02:17:15;47.00;;;24.17;;
21661;SDS011;10992;48.170;8.596;2024-02-28T02:19:42;43.42;;;25.27;;
21661;SDS011;10992;48.170;8.596;2024-02-28T02:22:09;39.53;;;23.98;;
21661;SDS011;10992;48.170;8.596;2024-02-28T02:24:39;36.70;;;23.13;;
21661;SDS011;10992;48.170;8.596;2024-02-28T02:27:06;37.75;;;25.15;;
21661;SDS011;10992;48.170;8.596;2024-02-28T02:29:33;40.45;;;24.70;;
21661;SDS011;10992;48.170;8.596;2024-02-28T02:32:00;40.83;;;24.95;;
21661;SDS011;10992;48.170;8.596;2024-02-28T02:34:27;38.30;;;23.83;;
21661;SDS011;10992;48.170;8.596;2024-02-28T02:36:54;40.30;;;24.95;;
21661;SDS011;10992;48.170;8.596;2024-02-28T02:39:21;43.40;;;26.85;;
21661;SDS011;10992;48.170;8.596;2024-02-28T02:41:48;40.17;;;24.60;;
21661;SDS011;10992;48.170;8.596;2024-02-28T02:44:15;38.33;;;23.45;;
21661;SDS011;10992;48.170;8.596;2024-02-28T02:46:41;43.42;;;24.50;;
21661;SDS011;10992;48.170;8.596;2024-02-28T02:49:08;44.63;;;25.58;;
21661;SDS011;10992;48.170;8.596;2024-02-28T02:51:35;38.97;;;24.02;;
21661;SDS011;10992;48.170;8.596;2024-02-28T02:54:02;40.55;;;24.15;;
21661;SDS011;10992;48.170;8.596;2024-02-28T02:56:29;37.75;;;23.38;;
21661;SDS011;10992;48.170;8.596;2024-02-28T02:58:56;39.88;;;24.90;;
21661;SDS011;10992;48.170;8.596;2024-02-28T03:01:22;44.58;;;27.35;;
21661;SDS011;10992;48.170;8.596;2024-02-28T03:03:49;39.65;;;24.30;;
21661;SDS011;10992;48.170;8.596;2024-02-28T03:06:16;42.10;;;23.55;;
21661;SDS011;10992;48.170;8.596;2024-02-28T03:08:43;42.97;;;24.73;;
21661;SDS011;10992;48.170;8.596;2024-02-28T03:11:10;37.58;;;22.33;;
21661;SDS011;10992;48.170;8.596;2024-02-28T03:13:37;45.03;;;25.17;;
21661;SDS011;10992;48.170;8.596;2024-02-28T03:16:04;42.85;;;25.30;;
21661;SDS011;10992;48.170;8.596;2024-02-28T03:18:31;42.13;;;26.15;;
21661;SDS011;10992;48.170;8.596;2024-02-28T03:20:59;40.33;;;24.73;;
21661;SDS011;10992;48.170;8.596;2024-02-28T03:23:25;37.17;;;23.75;;
21661;SDS011;10992;48.170;8.596;2024-02-28T03:25:52;38.03;;;23.85;;
21661;SDS011;10992;48.170;8.596;2024-02-28T03:28:19;39.03;;;23.42;;
21661;SDS011;10992;48.170;8.596;2024-02-28T03:30:46;37.50;;;23.60;;
21661;SDS011;10992;48.170;8.596;2024-02-28T03:33:13;40.90;;;23.88;;
21661;SDS011;10992;48.170;8.596;2024-02-28T03:35:40;43.90;;;23.80;;
21661;SDS011;10992;48.170;8.596;2024-02-28T03:38:07;38.58;;;23.58;;
21661;SDS011;10992;48.170;8.596;2024-02-28T03:40:34;41.42;;;23.40;;
21661;SDS011;10992;48.170;8.596;2024-02-28T03:43:01;36.88;;;23.92;;
21661;SDS011;10992;48.170;8.596;2024-02-28T03:45:28;35.38;;;22.75;;
21661;SDS011;10992;48.170;8.596;2024-02-28T03:47:56;42.22;;;23.48;;
21661;SDS011;10992;48.170;8.596;2024-02-28T03:50:23;36.63;;;23.25;;
21661;SDS011;10992;48.170;8.596;2024-02-28T03:52:50;38.45;;;21.70;;
21661;SDS011;10992;48.170;8.596;2024-02-28T03:55:17;36.47;;;22.85;;
21661;SDS011;10992;48.170;8.596;2024-02-28T03:57:46;37.17;;;22.83;;
21661;SDS011;10992;48.170;8.596;2024-02-28T04:00:14;38.75;;;23.25;;
21661;SDS011;10992;48.170;8.596;2024-02-28T04:02:41;40.78;;;23.42;;
21661;SDS011;10992;48.170;8.596;2024-02-28T04:05:08;37.53;;;23.15;;
21661;SDS011;10992;48.170;8.596;2024-02-28T04:07:35;38.72;;;23.70;;
21661;SDS011;10992;48.170;8.596;2024-02-28T04:10:02;37.97;;;23.02;;
21661;SDS011;10992;48.170;8.596;2024-02-28T04:12:31;38.92;;;23.25;;
21661;SDS011;10992;48.170;8.596;2024-02-28T04:14:59;38.58;;;22.65;;
21661;SDS011;10992;48.170;8.596;2024-02-28T04:17:26;40.65;;;23.88;;
21661;SDS011;10992;48.170;8.596;2024-02-28T04:19:53;37.78;;;23.05;;
21661;SDS011;10992;48.170;8.596;2024-02-28T04:22:20;41.28;;;23.30;;
21661;SDS011;10992;48.170;8.596;2024-02-28T04:24:46;35.85;;;22.52;;
21661;SDS011;10992;48.170;8.596;2024-02-28T04:27:13;37.53;;;23.60;;
21661;SDS011;10992;48.170;8.596;2024-02-28T04:29:40;35.72;;;22.95;;
21661;SDS011;10992;48.170;8.596;2024-02-28T04:32:07;33.42;;;21.48;;
21661;SDS011;10992;48.170;8.596;2024-02-28T04:34:35;37.65;;;22.77;;
21661;SDS011;10992;48.170;8.596;2024-02-28T04:37:03;36.10;;;22.50;;
21661;SDS011;10992;48.170;8.596;2024-02-28T04:39:30;34.30;;;21.90;;
21661;SDS011;10992;48.170;8.596;2024-02-28T04:41:57;34.92;;;22.63;;
21661;SDS011;10992;48.170;8.596;2024-02-28T04:44:24;34.45;;;21.60;;
21661;SDS011;10992;48.170;8.596;2024-02-28T04:46:51;36.15;;;22.83;;
21661;SDS011;10992;48.170;8.596;2024-02-28T04:49:18;41.97;;;22.77;;
21661;SDS011;10992;48.170;8.596;2024-02-28T04:51:44;36.20;;;22.20;;
21661;SDS011;10992;48.170;8.596;2024-02-28T04:54:11;36.63;;;22.73;;
21661;SDS011;10992;48.170;8.596;2024-02-28T04:56:41;34.70;;;21.35;;
21661;SDS011;10992;48.170;8.596;2024-02-28T04:59:11;38.50;;;23.13;;
21661;SDS011;10992;48.170;8.596;2024-02-28T05:01:39;34.65;;;22.88;;
21661;SDS011;10992;48.170;8.596;2024-02-28T05:04:08;34.45;;;22.27;;
21661;SDS011;10992;48.170;8.596;2024-02-28T05:06:35;38.55;;;23.13;;
21661;SDS011;10992;48.170;8.596;2024-02-28T05:09:06;41.60;;;23.73;;
21661;SDS011;10992;48.170;8.596;2024-02-28T05:11:33;40.05;;;23.83;;
21661;SDS011;10992;48.170;8.596;2024-02-28T05:14:00;35.60;;;22.70;;
21661;SDS011;10992;48.170;8.596;2024-02-28T05:16:27;38.10;;;22.92;;
21661;SDS011;10992;48.170;8.596;2024-02-28T05:18:53;36.38;;;22.48;;
21661;SDS011;10992;48.170;8.596;2024-02-28T05:21:22;34.35;;;22.20;;
21661;SDS011;10992;48.170;8.596;2024-02-28T05:23:49;38.42;;;22.48;;
21661;SDS011;10992;48.170;8.596;2024-02-28T05:26:16;38.65;;;22.67;;
21661;SDS011;10992;48.170;8.596;2024-02-28T05:28:42;35.25;;;21.00;;
21661;SDS011;10992;48.170;8.596;2024-02-28T05:31:20;39.13;;;21.92;;
21661;SDS011;10992;48.170;8.596;2024-02-28T05:33:47;38.83;;;23.42;;
21661;SDS011;10992;48.170;8.596;2024-02-28T05:36:14;37.95;;;22.60;;
21661;SDS011;10992;48.170;8.596;2024-02-28T05:38:40;38.85;;;23.02;;
21661;SDS011;10992;48.170;8.596;2024-02-28T05:41:09;38.28;;;23.55;;
21661;SDS011;10992;48.170;8.596;2024-02-28T05:43:39;35.33;;;22.13;;
21661;SDS011;10992;48.170;8.596;2024-02-28T05:46:07;40.17;;;23.63;;
21661;SDS011;10992;48.170;8.596;2024-02-28T05:48:34;38.10;;;24.83;;
21661;SDS011;10992;48.170;8.596;2024-02-28T05:51:01;34.03;;;21.30;;
21661;SDS011;10992;48.170;8.596;2024-02-28T05:53:29;33.13;;;21.40;;
21661;SDS011;10992;48.170;8.596;2024-02-28T05:56:02;34.72;;;21.48;;
21661;SDS011;10992;48.170;8.596;2024-02-28T05:58:29;37.90;;;22.25;;
21661;SDS011;10992;48.170;8.596;2024-02-28T06:00:56;35.80;;;23.23;;
21661;SDS011;10992;48.170;8.596;2024-02-28T06:03:23;36.53;;;22.20;;
21661;SDS011;10992;48.170;8.596;2024-02-28T06:05:50;38.95;;;22.80;;
21661;SDS011;10992;48.170;8.596;2024-02-28T06:08:18;34.15;;;22.80;;
21661;SDS011;10992;48.170;8.596;2024-02-28T06:10:45;38.25;;;23.55;;
21661;SDS011;10992;48.170;8.596;2024-02-28T06:13:13;39.17;;;21.48;;
21661;SDS011;10992;48.170;8.596;2024-02-28T06:15:40;34.25;;;21.92;;
21661;SDS011;10992;48.170;8.596;2024-02-28T06:18:07;36.00;;;22.58;;
21661;SDS011;10992;48.170;8.596;2024-02-28T06:20:34;37.72;;;21.02;;
21661;SDS011;10992;48.170;8.596;2024-02-28T06:23:01;36.53;;;22.85;;
21661;SDS011;10992;48.170;8.596;2024-02-28T06:25:41;36.58;;;22.10;;
21661;SDS011;10992;48.170;8.596;2024-02-28T06:28:09;35.58;;;22.58;;
21661;SDS011;10992;48.170;8.596;2024-02-28T06:30:36;39.40;;;23.95;;
21661;SDS011;10992;48.170;8.596;2024-02-28T06:33:03;39.85;;;23.92;;
21661;SDS011;10992;48.170;8.596;2024-02-28T06:35:31;47.88;;;25.92;;
21661;SDS011;10992;48.170;8.596;2024-02-28T06:37:57;41.20;;;25.27;;
21661;SDS011;10992;48.170;8.596;2024-02-28T06:40:25;37.63;;;23.30;;
21661;SDS011;10992;48.170;8.596;2024-02-28T06:42:55;31.92;;;20.50;;
21661;SDS011;10992;48.170;8.596;2024-02-28T06:45:22;34.25;;;20.08;;
21661;SDS011;10992;48.170;8.596;2024-02-28T06:47:49;37.05;;;22.27;;
21661;SDS011;10992;48.170;8.596;2024-02-28T06:50:17;33.38;;;20.48;;
21661;SDS011;10992;48.170;8.596;2024-02-28T06:52:44;37.17;;;21.95;;
21661;SDS011;10992;48.170;8.596;2024-02-28T06:55:11;32.35;;;20.75;;
21661;SDS011;10992;48.170;8.596;2024-02-28T06:57:41;32.22;;;21.30;;
21661;SDS011;10992;48.170;8.596;2024-02-28T07:00:09;38.30;;;21.80;;
21661;SDS011;10992;48.170;8.596;2024-02-28T07:02:41;31.38;;;20.38;;
21661;SDS011;10992;48.170;8.596;2024-02-28T07:05:08;33.20;;;20.02;;
21661;SDS011;10992;48.170;8.596;2024-02-28T07:07:34;31.38;;;21.05;;
21661;SDS011;10992;48.170;8.596;2024-02-28T07:10:04;32.63;;;20.13;;
21661;SDS011;10992;48.170;8.596;2024-02-28T07:12:32;33.50;;;21.02;;
21661;SDS011;10992;48.170;8.596;2024-02-28T07:14:59;31.50;;;19.15;;
21661;SDS011;10992;48.170;8.596;2024-02-28T07:17:26;33.25;;;20.75;;
21661;SDS011;10992;48.170;8.596;2024-02-28T07:19:53;30.48;;;20.20;;
21661;SDS011;10992;48.170;8.596;2024-02-28T07:22:19;30.27;;;20.38;;
21661;SDS011;10992;48.170;8.596;2024-02-28T07:24:47;33.35;;;19.38;;
21661;SDS011;10992;48.170;8.596;2024-02-28T07:27:15;36.22;;;18.58;;
21661;SDS011;10992;48.170;8.596;2024-02-28T07:29:42;30.00;;;19.10;;
21661;SDS011;10992;48.170;8.596;2024-02-28T07:32:10;34.92;;;20.10;;
21661;SDS011;10992;48.170;8.596;2024-02-28T07:34:37;29.60;;;18.92;;
21661;SDS011;10992;48.170;8.596;2024-02-28T07:37:05;31.63;;;18.90;;
21661;SDS011;10992;48.170;8.596;2024-02-28T07:39:31;28.65;;;18.35;;
21661;SDS011;10992;48.170;8.596;2024-02-28T07:41:58;29.70;;;18.25;;
21661;SDS011;10992;48.170;8.596;2024-02-28T07:44:25;26.83;;;17.38;;
21661;SDS011;10992;48.170;8.596;2024-02-28T07:46:52;30.30;;;19.15;;
21661;SDS011;10992;48.170;8.596;2024-02-28T07:49:19;32.65;;;19.75;;
21661;SDS011;10992;48.170;8.596;2024-02-28T07:51:46;31.88;;;20.00;;
21661;SDS011;10992;48.170;8.596;2024-02-28T07:54:13;25.05;;;17.92;;
21661;SDS011;10992;48.170;8.596;2024-02-28T07:56:40;28.50;;;18.40;;
21661;SDS011;10992;48.170;8.596;2024-02-28T07:59:07;31.90;;;18.98;;
21661;SDS011;10992;48.170;8.596;2024-02-28T08:01:33;28.13;;;18.73;;
21661;SDS011;10992;48.170;8.596;2024-02-28T08:04:01;28.92;;;18.90;;
21661;SDS011;10992;48.170;8.596;2024-02-28T08:06:28;27.45;;;17.65;;
21661;SDS011;10992;48.170;8.596;2024-02-28T08:08:56;25.33;;;16.63;;
21661;SDS011;10992;48.170;8.596;2024-02-28T08:11:22;27.45;;;17.17;;
21661;SDS011;10992;48.170;8.596;2024-02-28T08:13:51;26.77;;;17.10;;
21661;SDS011;10992;48.170;8.596;2024-02-28T08:16:18;27.40;;;17.63;;
21661;SDS011;10992;48.170;8.596;2024-02-28T08:18:45;27.60;;;16.70;;
21661;SDS011;10992;48.170;8.596;2024-02-28T08:21:12;32.40;;;19.38;;
21661;SDS011;10992;48.170;8.596;2024-02-28T08:23:39;26.88;;;16.83;;
21661;SDS011;10992;48.170;8.596;2024-02-28T08:26:06;27.83;;;17.45;;
21661;SDS011;10992;48.170;8.596;2024-02-28T08:28:33;27.73;;;17.13;;
21661;SDS011;10992;48.170;8.596;2024-02-28T08:30:59;26.85;;;17.10;;
21661;SDS011;10992;48.170;8.596;2024-02-28T08:33:27;27.35;;;17.92;;
21661;SDS011;10992;48.170;8.596;2024-02-28T08:35:54;29.73;;;17.35;;
21661;SDS011;10992;48.170;8.596;2024-02-28T08:38:21;31.52;;;19.77;;
21661;SDS011;10992;48.170;8.596;2024-02-28T08:40:47;30.20;;;18.85;;
21661;SDS011;10992;48.170;8.596;2024-02-28T08:43:14;25.35;;;16.55;;
21661;SDS011;10992;48.170;8.596;2024-02-28T08:45:41;26.75;;;16.63;;
21661;SDS011;10992;48.170;8.596;2024-02-28T08:48:08;31.83;;;19.38;;
21661;SDS011;10992;48.170;8.596;2024-02-28T08:50:35;24.27;;;16.77;;
21661;SDS011;10992;48.170;8.596;2024-02-28T08:53:02;27.27;;;17.70;;
21661;SDS011;10992;48.170;8.596;2024-02-28T08:55:29;27.48;;;17.63;;
21661;SDS011;10992;48.170;8.596;2024-02-28T08:57:57;27.52;;;17.15;;
21661;SDS011;10992;48.170;8.596;2024-02-28T09:00:25;28.33;;;18.63;;
21661;SDS011;10992;48.170;8.596;2024-02-28T09:02:52;26.52;;;17.95;;
21661;SDS011;10992;48.170;8.596;2024-02-28T09:05:18;24.50;;;15.77;;
21661;SDS011;10992;48.170;8.596;2024-02-28T09:07:45;27.92;;;16.95;;
21661;SDS011;10992;48.170;8.596;2024-02-28T09:10:17;30.48;;;17.90;;
21661;SDS011;10992;48.170;8.596;2024-02-28T09:12:50;26.98;;;16.70;;
21661;SDS011;10992;48.170;8.596;2024-02-28T09:15:17;28.13;;;17.10;;
21661;SDS011;10992;48.170;8.596;2024-02-28T09:17:45;24.23;;;15.43;;
21661;SDS011;10992;48.170;8.596;2024-02-28T09:20:12;25.25;;;16.52;;
21661;SDS011;10992;48.170;8.596;2024-02-28T09:22:39;30.73;;;17.80;;
21661;SDS011;10992;48.170;8.596;2024-02-28T09:25:06;25.90;;;16.92;;
21661;SDS011;10992;48.170;8.596;2024-02-28T09:27:35;27.52;;;16.42;;
21661;SDS011;10992;48.170;8.596;2024-02-28T09:30:03;25.98;;;16.42;;
21661;SDS011;10992;48.170;8.596;2024-02-28T09:32:31;24.48;;;15.82;;
21661;SDS011;10992;48.170;8.596;2024-02-28T09:34:58;23.25;;;15.80;;
21661;SDS011;10992;48.170;8.596;2024-02-28T09:37:28;26.75;;;16.17;;
21661;SDS011;10992;48.170;8.596;2024-02-28T09:39:57;25.38;;;16.08;;
21661;SDS011;10992;48.170;8.596;2024-02-28T09:42:25;27.38;;;16.52;;
21661;SDS011;10992;48.170;8.596;2024-02-28T09:44:54;23.17;;;15.45;;
21661;SDS011;10992;48.170;8.596;2024-02-28T09:47:22;23.92;;;16.85;;
21661;SDS011;10992;48.170;8.596;2024-02-28T09:49:49;22.90;;;15.75;;
21661;SDS011;10992;48.170;8.596;2024-02-28T09:52:18;23.63;;;15.95;;
21661;SDS011;10992;48.170;8.596;2024-02-28T09:54:45;29.02;;;16.83;;
21661;SDS011;10992;48.170;8.596;2024-02-28T09:57:12;25.85;;;16.00;;
21661;SDS011;10992;48.170;8.596;2024-02-28T09:59:39;27.58;;;17.52;;
21661;SDS011;10992;48.170;8.596;2024-02-28T10:02:19;27.38;;;16.77;;
21661;SDS011;10992;48.170;8.596;2024-02-28T10:04:49;28.35;;;16.27;;
21661;SDS011;10992;48.170;8.596;2024-02-28T10:07:17;24.23;;;16.48;;
21661;SDS011;10992;48.170;8.596;2024-02-28T10:09:44;25.48;;;16.67;;
21661;SDS011;10992;48.170;8.596;2024-02-28T10:12:11;25.73;;;16.73;;
21661;SDS011;10992;48.170;8.596;2024-02-28T10:14:37;25.75;;;16.20;;
21661;SDS011;10992;48.170;8.596;2024-02-28T10:17:05;24.45;;;15.75;;
21661;SDS011;10992;48.170;8.596;2024-02-28T10:19:32;22.40;;;14.90;;
21661;SDS011;10992;48.170;8.596;2024-02-28T10:21:59;23.67;;;15.68;;
21661;SDS011;10992;48.170;8.596;2024-02-28T10:24:26;23.10;;;14.65;;
21661;SDS011;10992;48.170;8.596;2024-02-28T10:26:54;26.02;;;16.52;;
21661;SDS011;10992;48.170;8.596;2024-02-28T10:29:23;28.45;;;16.73;;
21661;SDS011;10992;48.170;8.596;2024-02-28T10:32:00;24.10;;;15.27;;
21661;SDS011;10992;48.170;8.596;2024-02-28T10:34:29;23.08;;;14.82;;
21661;SDS011;10992;48.170;8.596;2024-02-28T10:36:57;25.30;;;15.77;;
21661;SDS011;10992;48.170;8.596;2024-02-28T10:39:24;24.65;;;15.90;;
21661;SDS011;10992;48.170;8.596;2024-02-28T10:41:53;25.23;;;15.68;;
21661;SDS011;10992;48.170;8.596;2024-02-28T10:44:20;24.00;;;15.25;;
21661;SDS011;10992;48.170;8.596;2024-02-28T10:46:49;24.27;;;15.88;;
21661;SDS011;10992;48.170;8.596;2024-02-28T10:49:16;20.63;;;14.52;;
21661;SDS011;10992;48.170;8.596;2024-02-28T10:51:45;25.90;;;15.70;;
21661;SDS011;10992;48.170;8.596;2024-02-28T10:54:14;21.40;;;15.68;;
21661;SDS011;10992;48.170;8.596;2024-02-28T10:56:42;23.48;;;15.27;;
21661;SDS011;10992;48.170;8.596;2024-02-28T10:59:10;24.45;;;15.90;;
21661;SDS011;10992;48.170;8.596;2024-02-28T11:01:39;21.77;;;14.68;;
21661;SDS011;10992;48.170;8.596;2024-02-28T11:04:12;22.52;;;14.75;;
21661;SDS011;10992;48.170;8.596;2024-02-28T11:06:50;23.13;;;15.32;;
21661;SDS011;10992;48.170;8.596;2024-02-28T11:09:20;21.00;;;14.95;;
21661;SDS011;10992;48.170;8.596;2024-02-28T11:11:52;21.58;;;15.38;;
21661;SDS011;10992;48.170;8.596;2024-02-28T11:14:19;19.63;;;13.82;;
21661;SDS011;10992;48.170;8.596;2024-02-28T11:17:00;21.38;;;13.90;;
21661;SDS011;10992;48.170;8.596;2024-02-28T11:19:29;21.98;;;14.23;;
21661;SDS011;10992;48.170;8.596;2024-02-28T11:22:02;17.77;;;12.43;;
21661;SDS011;10992;48.170;8.596;2024-02-28T11:24:31;21.23;;;14.75;;
21661;SDS011;10992;48.170;8.596;2024-02-28T11:27:00;20.10;;;13.30;;
21661;SDS011;10992;48.170;8.596;2024-02-28T11:29:29;20.08;;;13.63;;
21661;SDS011;10992;48.170;8.596;2024-02-28T11:31:56;19.75;;;13.27;;
21661;SDS011;10992;48.170;8.596;2024-02-28T11:34:24;17.20;;;12.07;;
21661;SDS011;10992;48.170;8.596;2024-02-28T11:36:51;18.23;;;12.82;;
21661;SDS011;10992;48.170;8.596;2024-02-28T11:39:20;18.67;;;12.35;;
21661;SDS011;10992;48.170;8.596;2024-02-28T11:41:47;17.70;;;12.55;;
21661;SDS011;10992;48.170;8.596;2024-02-28T11:44:15;18.33;;;12.10;;
21661;SDS011;10992;48.170;8.596;2024-02-28T11:46:46;22.48;;;12.40;;
21661;SDS011;10992;48.170;8.596;2024-02-28T11:49:13;16.58;;;11.63;;
21661;SDS011;10992;48.170;8.596;2024-02-28T11:51:41;18.30;;;12.82;;
21661;SDS011;10992;48.170;8.596;2024-02-28T11:54:09;19.40;;;13.23;;
21661;SDS011;10992;48.170;8.596;2024-02-28T11:56:39;18.88;;;12.63;;
21661;SDS011;10992;48.170;8.596;2024-02-28T11:59:08;17.45;;;12.70;;
21661;SDS011;10992;48.170;8.596;2024-02-28T12:01:38;21.35;;;13.73;;
21661;SDS011;10992;48.170;8.596;2024-02-28T12:04:08;18.25;;;12.38;;
21661;SDS011;10992;48.170;8.596;2024-02-28T12:06:36;18.40;;;12.77;;
21661;SDS011;10992;48.170;8.596;2024-02-28T12:09:07;16.35;;;11.23;;
21661;SDS011;10992;48.170;8.596;2024-02-28T12:11:36;18.00;;;12.48;;
21661;SDS011;10992;48.170;8.596;2024-02-28T12:14:04;18.20;;;12.50;;
21661;SDS011;10992;48.170;8.596;2024-02-28T12:16:38;17.85;;;12.52;;
21661;SDS011;10992;48.170;8.596;2024-02-28T12:19:09;17.73;;;12.20;;
21661;SDS011;10992;48.170;8.596;2024-02-28T12:21:37;17.23;;;12.20;;
21661;SDS011;10992;48.170;8.596;2024-02-28T12:24:05;18.08;;;11.80;;
21661;SDS011;10992;48.170;8.596;2024-02-28T12:26:35;17.35;;;12.68;;
21661;SDS011;10992;48.170;8.596;2024-02-28T12:29:02;17.75;;;12.90;;
21661;SDS011;10992;48.170;8.596;2024-02-28T12:31:29;17.38;;;12.50;;
21661;SDS011;10992;48.170;8.596;2024-02-28T12:33:56;17.58;;;12.45;;
21661;SDS011;10992;48.170;8.596;2024-02-28T12:36:23;20.70;;;12.77;;
21661;SDS011;10992;48.170;8.596;2024-02-28T12:38:50;18.35;;;12.50;;
21661;SDS011;10992;48.170;8.596;2024-02-28T12:41:17;19.02;;;13.45;;
21661;SDS011;10992;48.170;8.596;2024-02-28T12:43:44;18.70;;;13.13;;
21661;SDS011;10992;48.170;8.596;2024-02-28T12:46:11;19.10;;;13.40;;
21661;SDS011;10992;48.170;8.596;2024-02-28T12:48:38;17.45;;;11.93;;
21661;SDS011;10992;48.170;8.596;2024-02-28T12:51:08;19.33;;;13.40;;
21661;SDS011;10992;48.170;8.596;2024-02-28T12:53:39;19.10;;;12.57;;
21661;SDS011;10992;48.170;8.596;2024-02-28T12:56:07;17.48;;;13.02;;
21661;SDS011;10992;48.170;8.596;2024-02-28T12:58:33;20.35;;;13.05;;
21661;SDS011;10992;48.170;8.596;2024-02-28T13:01:00;19.65;;;13.40;;
21661;SDS011;10992;48.170;8.596;2024-02-28T13:03:27;19.13;;;13.55;;
21661;SDS011;10992;48.170;8.596;2024-02-28T13:05:54;17.05;;;12.77;;
21661;SDS011;10992;48.170;8.596;2024-02-28T13:08:21;20.98;;;13.68;;
21661;SDS011;10992;48.170;8.596;2024-02-28T13:10:48;17.50;;;12.80;;
21661;SDS011;10992;48.170;8.596;2024-02-28T13:13:15;20.40;;;13.10;;
21661;SDS011;10992;48.170;8.596;2024-02-28T13:15:42;19.35;;;13.55;;
21661;SDS011;10992;48.170;8.596;2024-02-28T13:18:11;19.98;;;13.00;;
21661;SDS011;10992;48.170;8.596;2024-02-28T13:20:38;20.73;;;13.90;;
21661;SDS011;10992;48.170;8.596;2024-02-28T13:23:06;19.58;;;13.23;;
21661;SDS011;10992;48.170;8.596;2024-02-28T13:25:33;18.80;;;13.32;;
21661;SDS011;10992;48.170;8.596;2024-02-28T13:28:00;17.67;;;13.35;;
21661;SDS011;10992;48.170;8.596;2024-02-28T13:30:27;20.27;;;13.23;;
21661;SDS011;10992;48.170;8.596;2024-02-28T13:32:54;16.90;;;12.20;;
21661;SDS011;10992;48.170;8.596;2024-02-28T13:35:21;18.60;;;12.75;;
21661;SDS011;10992;48.170;8.596;2024-02-28T13:37:48;16.27;;;12.20;;
21661;SDS011;10992;48.170;8.596;2024-02-28T13:40:14;19.60;;;12.80;;
21661;SDS011;10992;48.170;8.596;2024-02-28T13:42:42;19.80;;;12.90;;
21661;SDS011;10992;48.170;8.596;2024-02-28T13:45:08;18.90;;;13.45;;
21661;SDS011;10992;48.170;8.596;2024-02-28T13:47:37;16.42;;;13.25;;
21661;SDS011;10992;48.170;8.596;2024-02-28T13:50:04;19.38;;;13.18;;
21661;SDS011;10992;48.170;8.596;2024-02-28T13:52:31;18.10;;;13.50;;
21661;SDS011;10992;48.170;8.596;2024-02-28T13:54:58;18.40;;;12.52;;
21661;SDS011;10992;48.170;8.596;2024-02-28T13:57:25;18.83;;;13.10;;
21661;SDS011;10992;48.170;8.596;2024-02-28T13:59:52;17.02;;;12.35;;
21661;SDS011;10992;48.170;8.596;2024-02-28T14:02:21;20.20;;;14.10;;
21661;SDS011;10992;48.170;8.596;2024-02-28T14:04:49;17.50;;;13.27;;
21661;SDS011;10992;48.170;8.596;2024-02-28T14:07:15;18.92;;;12.88;;
21661;SDS011;10992;48.170;8.596;2024-02-28T14:09:43;19.92;;;13.50;;
21661;SDS011;10992;48.170;8.596;2024-02-28T14:12:12;16.90;;;11.82;;
21661;SDS011;10992;48.170;8.596;2024-02-28T14:14:40;21.52;;;12.90;;
21661;SDS011;10992;48.170;8.596;2024-02-28T14:17:06;20.17;;;14.10;;
21661;SDS011;10992;48.170;8.596;2024-02-28T14:19:33;17.88;;;12.93;;
21661;SDS011;10992;48.170;8.596;2024-02-28T14:22:02;18.80;;;12.85;;
21661;SDS011;10992;48.170;8.596;2024-02-28T14:24:30;20.42;;;13.48;;